Time;durP1;ratioP1;P1;durP2;ratioP2;P2;SDS_P1;SDS_P2;PMS_P1;PMS_P2;Temp;Humidity;BMP_temperature;BMP_pressure;BME280_temperature;BME280_humidity;BME280_pressure;Samples;Min_cycle;Max_cycle;Signal;HPM_P1;HPM_P2
2021/01/05 00:00:37;;;;;;;7.53;1.55;;;;;;;5.80;65.06;101069.88;5052750;28;20044;-90
2021/01/05 00:03:03;;;;;;;6.85;1.65;;;;;;;5.82;64.10;101074.13;5039071;28;20021;-90
2021/01/05 00:05:29;;;;;;;7.15;1.65;;;;;;;5.82;63.81;101065.44;5047526;28;20028;-90
2021/01/05 00:07:54;;;;;;;5.53;1.63;;;;;;;5.85;64.08;101063.59;5056739;28;20501;-90
2021/01/05 00:10:20;;;;;;;8.15;1.85;;;;;;;5.84;64.31;101061.03;5055919;28;20108;-89
2021/01/05 00:12:45;;;;;;;4.65;1.73;;;;;;;5.80;65.13;101065.50;5073607;28;20009;-89
2021/01/05 00:15:13;;;;;;;9.23;2.00;;;;;;;5.93;64.18;101066.75;5079615;28;20055;-89
2021/01/05 00:17:38;;;;;;;9.70;2.10;;;;;;;5.83;64.05;101062.78;5070373;28;20086;-89
2021/01/05 00:20:11;;;;;;;4.70;1.52;;;;;;;5.84;63.46;101064.47;5052525;28;20033;-90
2021/01/05 00:22:37;;;;;;;9.63;2.10;;;;;;;5.43;63.45;101045.16;5051753;28;20461;-90
2021/01/05 00:25:08;;;;;;;5.18;1.63;;;;;;;5.80;62.65;101049.88;5068261;28;20112;-88
2021/01/05 00:27:34;;;;;;;5.35;1.77;;;;;;;5.59;63.39;101048.06;5051621;28;20087;-89
2021/01/05 00:29:59;;;;;;;4.75;2.13;;;;;;;5.98;63.46;101065.75;5038012;28;20360;-88
2021/01/05 00:32:25;;;;;;;5.50;1.58;;;;;;;6.02;62.88;101051.69;5053208;28;20036;-88
2021/01/05 00:34:51;;;;;;;4.35;1.80;;;;;;;5.95;63.06;101057.16;5070774;28;20047;-88
2021/01/05 00:37:18;;;;;;;9.15;1.90;;;;;;;6.05;62.69;101065.47;5058696;28;20021;-88
2021/01/05 00:39:44;;;;;;;8.60;1.67;;;;;;;6.12;61.45;101068.66;5053865;28;20025;-89
2021/01/05 00:42:10;;;;;;;8.00;2.53;;;;;;;6.05;62.68;101059.41;5054023;28;20482;-89
2021/01/05 00:44:36;;;;;;;4.85;1.42;;;;;;;6.24;61.58;101070.81;5053039;28;20056;-89
2021/01/05 00:47:03;;;;;;;7.65;2.05;;;;;;;6.38;61.35;101058.97;5051358;28;20099;-89
2021/01/05 00:49:28;;;;;;;5.03;1.58;;;;;;;6.34;61.17;101071.31;5055823;28;20020;-89
2021/01/05 00:51:53;;;;;;;5.78;1.58;;;;;;;6.34;60.73;101066.94;5057222;28;20100;-89
2021/01/05 00:54:19;;;;;;;6.30;2.03;;;;;;;6.26;61.94;101058.56;5053814;28;20017;-89
2021/01/05 00:57:04;;;;;;;7.63;1.75;;;;;;;6.44;60.73;101067.41;5052664;28;20051;-88
2021/01/05 00:59:29;;;;;;;9.13;1.63;;;;;;;6.41;61.20;101070.13;5047466;28;20032;-89
2021/01/05 01:01:56;;;;;;;7.40;1.90;;;;;;;6.35;61.76;101063.41;5032537;28;20025;-89
2021/01/05 01:04:22;;;;;;;5.55;1.70;;;;;;;6.50;60.63;101074.16;5032473;28;20026;-89
2021/01/05 01:06:47;;;;;;;8.38;1.40;;;;;;;6.52;59.76;101074.94;5047978;28;20029;-89
2021/01/05 01:09:12;;;;;;;6.75;1.58;;;;;;;6.29;61.66;101068.88;5052752;28;20025;-89
2021/01/05 01:11:38;;;;;;;8.23;1.65;;;;;;;6.24;61.71;101057.78;5051821;28;20025;-90
2021/01/05 01:14:04;;;;;;;5.13;1.40;;;;;;;6.46;61.72;101067.38;5052522;28;20507;-89
2021/01/05 01:16:30;;;;;;;5.78;1.27;;;;;;;6.37;60.73;101059.91;5052484;28;20021;-89
2021/01/05 01:18:55;;;;;;;6.68;1.67;;;;;;;6.44;61.21;101063.97;5052407;28;20029;-89
2021/01/05 01:21:20;;;;;;;7.32;1.40;;;;;;;6.42;60.13;101063.16;5053008;28;20021;-89
2021/01/05 01:23:46;;;;;;;4.90;1.52;;;;;;;6.44;61.53;101045.72;5054090;28;20044;-88
2021/01/05 01:26:11;;;;;;;5.60;1.40;;;;;;;6.40;61.70;101063.25;5050627;28;20378;-89
2021/01/05 01:28:37;;;;;;;8.38;1.27;;;;;;;6.44;61.02;101061.38;5053039;28;20017;-89
2021/01/05 01:31:02;;;;;;;6.03;2.08;;;;;;;6.32;62.64;101058.31;5053337;28;20027;-88
2021/01/05 01:33:28;;;;;;;5.07;1.85;;;;;;;6.28;62.23;101045.44;5051284;28;20021;-89
2021/01/05 01:35:53;;;;;;;8.27;1.98;;;;;;;6.39;61.89;101047.66;5050937;28;20657;-89
2021/01/05 01:38:19;;;;;;;4.63;1.60;;;;;;;6.32;60.93;101053.09;5051956;28;20451;-89
2021/01/05 01:40:44;;;;;;;3.90;1.48;;;;;;;6.39;61.46;101048.47;5054209;28;20048;-89
2021/01/05 01:43:09;;;;;;;8.25;2.08;;;;;;;6.14;61.84;101043.38;5038515;28;20033;-88
2021/01/05 01:45:36;;;;;;;9.75;1.92;;;;;;;6.34;61.31;101051.28;5037947;28;20021;-89
2021/01/05 01:48:03;;;;;;;10.73;1.83;;;;;;;6.33;60.55;101060.00;5058970;28;20486;-88
2021/01/05 01:50:32;;;;;;;8.27;1.83;;;;;;;6.34;61.56;101056.50;5058767;28;20490;-88
2021/01/05 01:53:21;;;;;;;5.15;1.60;;;;;;;6.36;60.30;101066.88;5056609;28;20033;-88
2021/01/05 01:56:01;;;;;;;9.18;3.90;;;;;;;6.41;61.23;101045.81;5056007;28;20025;-88
2021/01/05 01:58:36;;;;;;;6.05;1.52;;;;;;;6.49;61.98;101062.00;5051155;28;20060;-88
2021/01/05 02:01:23;;;;;;;5.90;2.75;;;;;;;6.52;61.59;101074.94;5036164;28;20196;-88
2021/01/05 02:04:16;;;;;;;7.82;1.40;;;;;;;6.27;61.71;101062.88;5035938;28;20033;-88
2021/01/05 02:06:53;;;;;;;6.10;1.73;;;;;;;6.38;61.84;101075.50;5044703;28;20037;-88
2021/01/05 02:09:36;;;;;;;6.95;2.42;;;;;;;6.28;61.51;101053.28;5055767;28;20036;-88
2021/01/05 02:12:53;;;;;;;8.27;1.48;;;;;;;6.35;61.74;101062.56;5054715;28;20033;-88
2021/01/05 02:15:45;;;;;;;4.55;1.58;;;;;;;6.49;60.81;101072.44;5056015;28;20033;-89
2021/01/05 02:18:27;;;;;;;3.97;1.33;;;;;;;6.48;61.06;101073.38;5055611;28;20064;-90
2021/01/05 02:21:01;;;;;;;4.40;2.13;;;;;;;6.40;61.05;101075.41;5071571;28;20029;-90
2021/01/05 02:23:43;;;;;;;7.93;1.50;;;;;;;6.47;59.88;101061.22;5037975;28;20056;-89
2021/01/05 02:26:19;;;;;;;8.90;1.40;;;;;;;6.04;62.06;101081.16;5037328;28;20429;-90
2021/01/05 02:28:50;;;;;;;9.07;1.60;;;;;;;5.88;63.67;101076.50;5055646;28;20394;-90
2021/01/05 02:31:52;;;;;;;6.80;1.80;;;;;;;5.82;63.62;101068.91;5055524;28;20017;-90
2021/01/05 02:34:23;;;;;;;3.90;1.67;;;;;;;5.90;63.71;101072.06;5055503;28;20029;-88
2021/01/05 02:37:09;;;;;;;5.55;1.38;;;;;;;5.78;62.38;101064.72;5053113;28;20033;-88
2021/01/05 02:39:52;;;;;;;5.65;1.60;;;;;;;5.68;62.53;101065.97;5055447;28;20025;-90
2021/01/05 02:42:48;;;;;;;6.00;1.60;;;;;;;5.68;63.47;101073.78;5054991;28;20045;-90
2021/01/05 02:45:23;;;;;;;6.93;1.85;;;;;;;5.48;63.81;101070.16;5047895;28;20105;-90
2021/01/05 02:48:07;;;;;;;4.18;1.50;;;;;;;5.67;62.94;101072.09;5051994;28;20331;-88
2021/01/05 02:50:44;;;;;;;7.13;1.55;;;;;;;5.67;62.82;101065.13;5054567;28;20490;-88
2021/01/05 02:53:16;;;;;;;6.30;1.73;;;;;;;5.80;62.93;101068.09;5054841;28;20032;-90
2021/01/05 02:56:06;;;;;;;8.25;3.35;;;;;;;5.84;63.62;101064.47;5056215;28;20164;-89
2021/01/05 02:58:31;;;;;;;8.63;2.15;;;;;;;5.80;62.99;101067.28;5057422;28;20567;-90
2021/01/05 03:01:32;;;;;;;6.53;1.88;;;;;;;5.75;63.40;101072.66;5055393;28;20064;-90
2021/01/05 03:03:57;;;;;;;3.90;1.80;;;;;;;5.77;63.54;101081.28;4997985;28;20309;-90
2021/01/05 03:06:37;;;;;;;8.07;1.88;;;;;;;5.73;63.01;101071.88;5037194;28;20610;-90
2021/01/05 03:09:23;;;;;;;7.57;1.98;;;;;;;5.55;62.67;101061.22;5055591;28;20032;-89
2021/01/05 03:12:20;;;;;;;4.68;1.50;;;;;;;5.85;63.33;101068.81;5054734;28;20047;-89
2021/01/05 03:14:56;;;;;;;10.27;2.33;;;;;;;5.83;62.90;101054.97;5055267;28;20005;-90
2021/01/05 03:17:30;;;;;;;7.28;1.58;;;;;;;5.80;63.05;101070.72;5049951;28;20379;-89
2021/01/05 03:20:13;;;;;;;10.10;1.98;;;;;;;5.70;63.33;101058.94;5053877;28;20110;-88
2021/01/05 03:22:49;;;;;;;8.32;2.25;;;;;;;5.57;63.99;101055.97;5054916;28;20085;-88
2021/01/05 03:25:17;;;;;;;7.72;2.00;;;;;;;5.78;63.38;101075.13;5053150;28;20024;-88
2021/01/05 03:27:43;;;;;;;3.35;1.50;;;;;;;5.85;62.94;101070.56;5054578;28;20021;-88
2021/01/05 03:30:14;;;;;;;7.60;1.80;;;;;;;5.81;63.02;101068.97;5052825;28;20425;-88
2021/01/05 03:32:40;;;;;;;4.80;1.98;;;;;;;5.87;62.99;101058.31;5054309;28;20379;-88
2021/01/05 03:35:05;;;;;;;7.60;2.15;;;;;;;5.57;64.67;101051.59;5042729;28;20030;-88
2021/01/05 03:37:31;;;;;;;4.10;1.75;;;;;;;5.76;63.66;101049.13;5043805;28;20033;-89
2021/01/05 03:39:56;;;;;;;5.22;1.42;;;;;;;5.37;63.43;101035.81;5052717;28;20112;-88
2021/01/05 03:42:22;;;;;;;6.45;1.90;;;;;;;5.68;63.40;101045.97;5054253;28;20494;-88
2021/01/05 03:44:47;;;;;;;6.47;1.73;;;;;;;5.62;62.93;101032.34;5052807;28;20021;-88
2021/01/05 03:47:12;;;;;;;6.32;1.73;;;;;;;5.80;63.21;101044.66;5052697;28;20372;-88
2021/01/05 03:49:38;;;;;;;5.72;1.63;;;;;;;5.82;63.18;101050.66;5053786;28;20433;-88
2021/01/05 03:52:04;;;;;;;4.88;1.30;;;;;;;5.90;63.31;101040.78;5053630;28;20442;-88
2021/01/05 03:54:29;;;;;;;7.82;1.27;;;;;;;5.83;63.71;101051.53;5053744;28;20059;-88
2021/01/05 03:56:55;;;;;;;8.15;1.60;;;;;;;5.41;63.39;101008.78;5052381;28;20460;-88
2021/01/05 03:59:20;;;;;;;5.93;1.80;;;;;;;5.87;63.56;101034.88;5053506;28;20029;-87
2021/01/05 04:01:53;;;;;;;4.85;1.90;;;;;;;5.77;63.43;101050.00;5045058;28;20514;-88
2021/01/05 04:04:19;;;;;;;9.05;1.83;;;;;;;5.86;63.23;101049.63;5047774;28;20020;-88
2021/01/05 04:06:45;;;;;;;12.95;2.30;;;;;;;5.71;62.76;101045.88;5053641;28;20029;-88
2021/01/05 04:09:10;;;;;;;11.20;2.88;;;;;;;5.94;63.05;101047.59;5053924;28;20070;-89
2021/01/05 04:11:36;;;;;;;2.30;1.05;;;;;;;5.66;62.58;101052.16;5053856;28;20021;-88
2021/01/05 04:14:01;;;;;;;5.15;1.58;;;;;;;5.34;63.43;101052.41;5054724;28;20036;-88
2021/01/05 04:16:26;;;;;;;6.35;1.50;;;;;;;5.55;63.58;101047.34;5055235;28;20025;-88
2021/01/05 04:18:52;;;;;;;7.13;1.65;;;;;;;5.65;63.07;101056.53;5054292;28;20036;-88
2021/01/05 04:21:17;;;;;;;6.68;1.25;;;;;;;5.74;63.20;101035.31;5055051;28;20329;-88
2021/01/05 04:23:42;;;;;;;3.55;0.93;;;;;;;5.77;62.60;101039.56;5055749;28;21109;-88
2021/01/05 04:26:09;;;;;;;4.72;2.15;;;;;;;5.67;63.06;101040.84;5057660;28;20049;-89
2021/01/05 04:28:34;;;;;;;4.88;1.27;;;;;;;5.68;62.81;101024.28;5055791;28;20029;-88
2021/01/05 04:31:00;;;;;;;6.40;1.42;;;;;;;5.32;64.43;101029.94;5053157;28;20079;-88
2021/01/05 04:33:25;;;;;;;5.10;1.73;;;;;;;5.35;63.39;101043.72;5053028;28;20079;-88
2021/01/05 04:35:51;;;;;;;4.43;1.23;;;;;;;5.64;63.51;101038.34;5053122;28;20033;-89
2021/01/05 04:38:16;;;;;;;5.07;1.33;;;;;;;5.49;63.98;101029.31;5053264;28;20096;-88
2021/01/05 04:40:46;;;;;;;3.42;1.38;;;;;;;5.28;63.31;101018.78;5053310;28;20104;-88
2021/01/05 04:43:33;;;;;;;7.03;1.60;;;;;;;5.25;63.06;101031.06;5057739;28;20040;-88
2021/01/05 04:46:04;;;;;;;9.30;1.20;;;;;;;5.44;63.61;101037.31;5061077;28;20028;-89
2021/01/05 04:49:00;;;;;;;7.13;1.65;;;;;;;5.58;63.70;101036.81;5061838;28;20036;-88
2021/01/05 04:51:34;;;;;;;3.45;1.00;;;;;;;5.31;62.87;101036.03;5061865;28;20035;-88
2021/01/05 04:54:37;;;;;;;5.18;0.98;;;;;;;5.38;63.50;101041.91;5060848;28;20479;-90
2021/01/05 04:57:02;;;;;;;8.30;1.77;;;;;;;5.28;62.54;101036.16;5060252;28;20032;-89
2021/01/05 04:59:39;;;;;;;2.70;1.20;;;;;;;5.29;63.31;101043.94;5056474;28;20029;-90
2021/01/05 05:02:14;;;;;;;10.70;1.00;;;;;;;5.32;63.84;101040.38;5058721;28;20029;-89
2021/01/05 05:04:48;;;;;;;8.13;1.25;;;;;;;5.08;64.20;101018.66;5058573;28;20450;-89
2021/01/05 05:07:54;;;;;;;6.82;1.15;;;;;;;4.88;64.41;101042.78;5060556;28;20032;-89
2021/01/05 05:10:31;;;;;;;4.70;2.10;;;;;;;4.99;64.47;101034.59;4991304;28;20038;-90
2021/01/05 05:13:02;;;;;;;5.25;1.23;;;;;;;4.86;64.54;101039.34;5046593;28;20450;-90
2021/01/05 05:15:36;;;;;;;6.53;1.02;;;;;;;5.16;64.27;101027.88;5052187;28;20057;-88
2021/01/05 05:18:11;;;;;;;2.63;1.08;;;;;;;4.88;64.21;101033.22;5051093;28;20059;-90
2021/01/05 05:20:54;;;;;;;4.35;1.35;;;;;;;4.89;64.76;101037.50;5051059;28;20067;-88
2021/01/05 05:23:32;;;;;;;5.82;1.08;;;;;;;4.80;64.85;101026.56;5052587;28;20087;-88
2021/01/05 05:26:09;;;;;;;2.35;0.88;;;;;;;4.96;64.49;101035.56;5052405;28;20071;-89
2021/01/05 05:28:49;;;;;;;4.28;1.00;;;;;;;5.05;64.00;101026.56;5052505;28;20490;-88
2021/01/05 05:31:20;;;;;;;5.28;1.25;;;;;;;5.05;65.03;101021.34;5054522;28;20072;-88
2021/01/05 05:33:47;;;;;;;4.38;1.35;;;;;;;5.04;63.67;101017.91;5056759;28;20048;-88
2021/01/05 05:36:21;;;;;;;3.35;1.05;;;;;;;4.86;65.30;101034.16;5056404;28;20029;-88
2021/01/05 05:39:19;;;;;;;7.70;1.60;;;;;;;4.94;64.94;101033.00;5054734;28;20479;-88
2021/01/05 05:42:00;;;;;;;3.75;1.40;;;;;;;4.79;65.85;101040.47;5054753;28;20051;-88
2021/01/05 05:44:32;;;;;;;4.80;1.02;;;;;;;5.01;64.12;101044.03;5052278;28;20532;-89
2021/01/05 05:47:11;;;;;;;5.78;2.20;;;;;;;4.90;64.74;101030.56;5046895;28;20029;-89
2021/01/05 05:49:46;;;;;;;5.85;2.05;;;;;;;5.02;64.41;101027.53;5045985;28;20545;-89
2021/01/05 05:52:26;;;;;;;3.33;1.33;;;;;;;5.10;64.49;101035.06;5051826;28;20032;-89
2021/01/05 05:54:54;;;;;;;4.70;1.52;;;;;;;5.15;63.90;101021.00;5052024;28;20023;-89
2021/01/05 05:57:34;;;;;;;6.75;1.10;;;;;;;5.20;64.09;101033.84;5052032;28;20063;-89
2021/01/05 06:00:19;;;;;;;4.28;1.20;;;;;;;5.15;63.84;101014.91;5049745;28;20048;-88
2021/01/05 06:02:44;;;;;;;8.00;1.10;;;;;;;5.15;63.07;101026.19;5052201;28;20382;-89
2021/01/05 06:05:26;;;;;;;3.67;0.90;;;;;;;4.74;65.41;101044.09;5067311;28;20108;-89
2021/01/05 06:07:51;;;;;;;6.10;0.98;;;;;;;4.84;64.91;101017.75;5051842;28;20056;-89
2021/01/05 06:10:16;;;;;;;3.90;1.17;;;;;;;4.95;64.94;101033.84;5051896;28;20500;-89
2021/01/05 06:12:42;;;;;;;3.60;1.10;;;;;;;4.89;64.49;101015.84;5051677;28;20032;-89
2021/01/05 06:15:08;;;;;;;10.95;3.33;;;;;;;4.67;65.40;101037.38;5047135;28;20082;-88
2021/01/05 06:17:33;;;;;;;3.25;1.25;;;;;;;4.20;66.11;101013.75;5032002;28;20026;-89
2021/01/05 06:19:58;;;;;;;5.82;1.15;;;;;;;4.41;65.00;101021.78;5066817;28;20025;-89
2021/01/05 06:22:24;;;;;;;3.05;1.00;;;;;;;4.74;65.05;101038.88;5054328;28;20467;-88
2021/01/05 06:24:49;;;;;;;12.82;1.65;;;;;;;4.57;65.30;101041.19;5053802;28;20028;-89
2021/01/05 06:27:14;;;;;;;4.85;0.88;;;;;;;4.70;64.53;101032.09;5067582;28;20017;-89
2021/01/05 06:29:40;;;;;;;5.35;1.20;;;;;;;4.51;64.31;101039.63;5069339;28;20002;-88
2021/01/05 06:32:05;;;;;;;3.83;1.33;;;;;;;4.40;65.35;101052.13;5080172;28;20020;-88
2021/01/05 06:34:31;;;;;;;10.90;1.40;;;;;;;4.40;64.95;101046.91;5061473;28;20074;-89
2021/01/05 06:36:56;;;;;;;8.88;1.52;;;;;;;4.08;67.01;101058.34;5055953;28;20112;-89
2021/01/05 06:39:21;;;;;;;5.38;1.20;;;;;;;4.25;66.93;101053.47;5054601;28;20029;-89
2021/01/05 06:41:47;;;;;;;11.55;1.70;;;;;;;4.25;65.94;101055.22;5058879;28;20107;-88
2021/01/05 06:44:12;;;;;;;3.15;1.35;;;;;;;4.30;65.05;101063.72;5056230;28;20087;-86
2021/01/05 06:46:37;;;;;;;3.85;1.15;;;;;;;4.29;64.80;101060.28;5055080;28;20029;-87
2021/01/05 06:49:03;;;;;;;2.97;1.40;;;;;;;4.25;65.52;101058.66;5054903;28;20031;-87
2021/01/05 06:51:28;;;;;;;5.00;1.33;;;;;;;4.15;65.86;101044.28;5054702;28;20056;-87
2021/01/05 06:53:53;;;;;;;7.25;1.35;;;;;;;4.30;65.33;101061.97;5038475;28;20026;-87
2021/01/05 06:56:19;;;;;;;9.65;1.67;;;;;;;4.15;64.99;101059.88;5054517;28;20100;-87
2021/01/05 06:58:44;;;;;;;2.70;1.92;;;;;;;4.20;66.26;101060.56;5053255;28;20032;-87
2021/01/05 07:01:10;;;;;;;4.40;1.27;;;;;;;4.11;65.81;101047.88;5053345;28;20029;-87
2021/01/05 07:03:35;;;;;;;5.93;1.58;;;;;;;4.13;65.98;101052.09;5054728;28;20021;-87
2021/01/05 07:06:00;;;;;;;14.13;2.08;;;;;;;3.93;66.25;101065.72;5054562;28;20060;-87
2021/01/05 07:08:26;;;;;;;5.35;1.42;;;;;;;3.80;66.32;101053.97;5043131;28;20021;-87
2021/01/05 07:10:51;;;;;;;7.65;1.70;;;;;;;3.95;66.54;101048.31;5049617;28;20079;-87
2021/01/05 07:13:16;;;;;;;7.30;1.88;;;;;;;4.06;66.44;101073.13;5049752;28;20060;-87
2021/01/05 07:15:42;;;;;;;7.15;2.53;;;;;;;3.85;67.23;101059.91;5052554;28;20494;-86
2021/01/05 07:18:09;;;;;;;7.60;2.33;;;;;;;4.02;66.90;101082.75;5054026;28;20163;-87
2021/01/05 07:20:34;;;;;;;8.38;2.50;;;;;;;4.09;66.53;101078.25;5054006;28;20032;-87
2021/01/05 07:22:59;;;;;;;5.60;3.35;;;;;;;3.90;66.90;101067.53;5054247;28;20013;-87
2021/01/05 07:25:25;;;;;;;8.05;3.00;;;;;;;4.10;66.50;101070.38;5052770;28;20100;-86
2021/01/05 07:27:50;;;;;;;8.75;3.05;;;;;;;3.73;67.81;101068.91;5051414;28;20063;-87
2021/01/05 07:30:16;;;;;;;10.52;3.35;;;;;;;3.94;67.63;101074.34;5052221;28;20009;-87
2021/01/05 07:32:41;;;;;;;8.93;3.38;;;;;;;4.06;66.71;101086.97;5052446;28;20039;-87
2021/01/05 07:35:09;;;;;;;11.68;3.65;;;;;;;4.00;67.63;101083.72;5053820;28;20379;-86
2021/01/05 07:37:38;;;;;;;14.57;4.07;;;;;;;3.65;68.09;101077.78;5054132;28;20025;-87
2021/01/05 07:40:05;;;;;;;8.50;3.97;;;;;;;4.12;66.82;101094.56;5054438;28;20028;-87
2021/01/05 07:42:33;;;;;;;7.53;3.63;;;;;;;3.94;68.15;101089.94;5052504;28;20025;-88
2021/01/05 07:45:00;;;;;;;7.30;3.47;;;;;;;4.12;67.48;101086.78;5053529;28;20032;-87
2021/01/05 07:47:32;;;;;;;8.10;3.63;;;;;;;4.30;66.92;101097.50;5051767;28;20096;-87
2021/01/05 07:49:57;;;;;;;10.70;3.35;;;;;;;4.27;66.54;101095.03;5053299;28;20192;-87
2021/01/05 07:52:34;;;;;;;10.65;3.53;;;;;;;4.28;66.51;101094.13;5053754;28;20056;-87
2021/01/05 07:55:00;;;;;;;7.63;3.13;;;;;;;4.02;66.55;101087.09;5053460;28;20029;-86
2021/01/05 07:57:25;;;;;;;8.77;3.78;;;;;;;4.16;67.38;101090.13;5051600;28;20448;-87
2021/01/05 07:59:50;;;;;;;10.75;3.55;;;;;;;4.09;66.77;101099.03;5053342;28;20037;-87
2021/01/05 08:02:16;;;;;;;7.97;3.72;;;;;;;4.12;65.87;101097.16;5053203;28;20060;-88
2021/01/05 08:04:43;;;;;;;7.07;3.85;;;;;;;4.23;66.40;101107.25;5052487;28;20021;-87
2021/01/05 08:07:09;;;;;;;11.35;4.03;;;;;;;4.17;67.00;101107.44;5053094;28;20078;-87
2021/01/05 08:09:38;;;;;;;9.73;3.83;;;;;;;4.17;67.08;101099.66;5053136;28;20028;-87
2021/01/05 08:12:03;;;;;;;7.45;3.92;;;;;;;4.17;67.10;101117.84;5048436;28;20483;-87
2021/01/05 08:14:29;;;;;;;7.80;3.63;;;;;;;4.20;66.80;101122.09;5034941;28;20049;-87
2021/01/05 08:16:54;;;;;;;8.98;3.78;;;;;;;4.27;66.58;101095.88;5047049;28;20021;-87
2021/01/05 08:19:20;;;;;;;8.38;3.53;;;;;;;4.28;66.68;101105.34;5052808;28;20103;-87
2021/01/05 08:21:45;;;;;;;5.60;3.70;;;;;;;4.47;66.27;101120.41;5052817;28;20033;-88
2021/01/05 08:24:10;;;;;;;8.88;4.13;;;;;;;4.47;66.49;101116.06;5053388;28;20025;-88
2021/01/05 08:26:36;;;;;;;6.25;3.55;;;;;;;4.63;66.53;101123.38;5045268;28;20034;-88
2021/01/05 08:29:02;;;;;;;10.20;4.32;;;;;;;4.57;65.17;101130.47;5052850;28;20387;-88
2021/01/05 08:31:36;;;;;;;8.40;3.75;;;;;;;4.27;65.93;101092.44;5052807;28;20028;-88
2021/01/05 08:34:02;;;;;;;9.95;3.75;;;;;;;4.33;66.58;101139.03;5054326;28;20055;-87
2021/01/05 08:36:29;;;;;;;8.50;3.58;;;;;;;4.34;66.61;101115.59;5052547;28;20384;-87
2021/01/05 08:38:55;;;;;;;6.95;3.55;;;;;;;4.12;67.15;101123.16;5052664;28;20071;-88
2021/01/05 08:41:21;;;;;;;8.63;3.88;;;;;;;4.42;65.20;101127.50;5052165;28;20104;-87
2021/01/05 08:43:46;;;;;;;12.27;3.85;;;;;;;4.23;66.82;101115.06;5052615;28;20053;-89
2021/01/05 08:46:19;;;;;;;6.65;3.75;;;;;;;4.28;66.63;101131.34;5051921;28;20459;-89
2021/01/05 08:48:44;;;;;;;10.88;4.55;;;;;;;4.30;66.28;101139.09;5052778;28;20037;-89
2021/01/05 08:51:09;;;;;;;8.55;4.47;;;;;;;4.20;66.48;101109.94;5053084;28;20025;-89
2021/01/05 08:53:35;;;;;;;5.70;3.83;;;;;;;4.43;65.32;101127.44;5053593;28;20052;-89
2021/01/05 08:56:00;;;;;;;8.75;4.22;;;;;;;4.37;66.43;101125.03;5044651;28;20029;-89
2021/01/05 08:58:27;;;;;;;7.22;3.92;;;;;;;4.40;66.20;101100.69;5031399;28;20491;-89
2021/01/05 09:00:52;;;;;;;8.95;4.57;;;;;;;4.00;66.87;101135.69;5039402;28;20025;-88
2021/01/05 09:03:18;;;;;;;6.47;4.13;;;;;;;4.16;65.96;101116.97;5057279;28;20044;-89
2021/01/05 09:05:44;;;;;;;11.10;4.90;;;;;;;4.16;67.19;101124.78;5057338;28;20021;-88
2021/01/05 09:08:09;;;;;;;13.15;4.63;;;;;;;4.20;66.33;101120.34;5056725;28;20522;-88
2021/01/05 09:10:34;;;;;;;8.23;4.60;;;;;;;4.26;66.10;101125.34;5048781;28;20387;-88
2021/01/05 09:13:00;;;;;;;9.68;4.40;;;;;;;4.34;66.46;101120.78;5051640;28;20025;-89
2021/01/05 09:15:25;;;;;;;11.52;4.18;;;;;;;4.42;66.40;101117.09;5052709;28;20033;-89
2021/01/05 09:17:52;;;;;;;6.68;4.15;;;;;;;4.43;65.94;101137.00;5050697;28;20032;-89
2021/01/05 09:20:20;;;;;;;18.48;6.68;;;;;;;4.15;67.31;101135.25;5036055;28;20033;-89
2021/01/05 09:22:46;;;;;;;8.65;4.35;;;;;;;4.36;66.37;101134.59;5046111;28;20025;-89
2021/01/05 09:25:13;;;;;;;9.55;4.22;;;;;;;4.44;66.23;101141.28;5051766;28;20028;-89
2021/01/05 09:27:38;;;;;;;10.40;4.47;;;;;;;4.43;65.40;101135.25;5053595;28;20021;-89
2021/01/05 09:30:11;;;;;;;15.65;4.65;;;;;;;4.57;66.12;101137.41;5051805;28;20036;-89
2021/01/05 09:32:37;;;;;;;4.95;3.83;;;;;;;4.71;65.25;101137.81;5051933;28;20028;-89
2021/01/05 09:35:03;;;;;;;5.78;4.00;;;;;;;4.77;64.66;101148.03;5051455;28;20475;-88
2021/01/05 09:37:29;;;;;;;5.50;3.85;;;;;;;4.72;65.46;101134.34;5050079;28;20029;-89
2021/01/05 09:39:54;;;;;;;7.88;3.58;;;;;;;4.54;64.73;101142.72;5050747;28;20143;-86
2021/01/05 09:43:36;;;;;;;7.80;3.72;;;;;;;4.44;65.80;101126.53;5066988;28;20431;-91
2021/01/05 09:46:02;;;;;;;5.78;3.78;;;;;;;4.70;65.12;101141.34;5064960;28;20029;-91
2021/01/05 09:48:27;;;;;;;5.82;3.70;;;;;;;4.92;64.62;101138.06;5048347;28;20068;-90
2021/01/05 09:50:53;;;;;;;12.88;4.15;;;;;;;4.62;65.34;101135.53;5050048;28;20048;-91
2021/01/05 09:53:18;;;;;;;6.13;3.72;;;;;;;4.89;64.77;101136.38;5052231;28;20033;-91
2021/01/05 09:55:43;;;;;;;5.80;4.35;;;;;;;5.03;64.63;101145.50;5049659;28;20112;-90
2021/01/05 09:58:09;;;;;;;10.95;3.85;;;;;;;5.17;63.70;101138.06;5049464;28;20033;-89
2021/01/05 10:00:34;;;;;;;7.88;4.20;;;;;;;4.90;65.45;101129.44;5049227;28;20036;-88
2021/01/05 10:03:00;;;;;;;11.25;4.93;;;;;;;5.06;65.84;101141.03;5048788;28;20033;-88
2021/01/05 10:05:25;;;;;;;5.57;4.22;;;;;;;5.44;64.46;101140.66;5050127;28;20033;-89
2021/01/05 10:07:51;;;;;;;7.05;4.20;;;;;;;5.71;63.95;101146.66;5049125;28;20063;-89
2021/01/05 10:10:25;;;;;;;9.35;3.67;;;;;;;5.82;62.79;101143.63;5050101;28;20025;-91
2021/01/05 10:12:51;;;;;;;16.15;4.00;;;;;;;5.76;63.35;101142.09;5049130;28;20025;-90
2021/01/05 10:15:19;;;;;;;5.78;3.25;;;;;;;5.89;62.02;101148.56;5050384;28;20037;-91
2021/01/05 10:17:44;;;;;;;12.32;3.33;;;;;;;6.04;62.46;101147.19;5054468;28;20056;-91
2021/01/05 10:20:12;;;;;;;6.82;3.33;;;;;;;6.15;62.05;101146.78;5061608;28;20037;-90
2021/01/05 10:22:38;;;;;;;4.20;3.20;;;;;;;6.40;61.43;101145.84;5056203;28;20029;-90
2021/01/05 10:25:06;;;;;;;6.25;3.47;;;;;;;6.46;61.18;101148.25;5049939;28;20234;-90
2021/01/05 10:27:31;;;;;;;6.70;3.45;;;;;;;6.18;61.16;101138.88;5050451;28;20061;-91
2021/01/05 10:29:57;;;;;;;5.32;3.42;;;;;;;6.34;61.37;101139.13;5049766;28;20025;-90
2021/01/05 10:32:23;;;;;;;7.03;3.17;;;;;;;6.47;60.29;101149.91;5049678;28;20025;-90
2021/01/05 10:34:48;;;;;;;7.30;3.38;;;;;;;6.22;61.81;101142.19;5049538;28;20036;-90
2021/01/05 10:37:13;;;;;;;5.85;3.92;;;;;;;6.30;61.71;101135.78;5049493;28;20029;-89
2021/01/05 10:39:39;;;;;;;6.07;3.17;;;;;;;6.83;60.07;101131.09;5052219;28;20021;-91
2021/01/05 10:42:05;;;;;;;6.63;3.47;;;;;;;7.57;57.65;101134.06;5048707;28;20108;-90
2021/01/05 10:44:31;;;;;;;5.35;3.03;;;;;;;8.82;55.78;101137.03;5054936;28;20017;-90
2021/01/05 10:47:00;;;;;;;10.52;4.05;;;;;;;9.58;53.19;101143.72;5055769;28;20017;-91
2021/01/05 10:49:26;;;;;;;6.65;2.97;;;;;;;10.60;49.93;101129.47;5043973;28;20035;-90
2021/01/05 10:51:54;;;;;;;4.30;2.38;;;;;;;10.27;48.77;101125.16;5048067;28;20116;-90
2021/01/05 10:54:21;;;;;;;7.80;2.60;;;;;;;10.55;50.08;101128.91;5039169;28;20109;-90
2021/01/05 10:56:55;;;;;;;4.40;2.50;;;;;;;11.70;48.37;101130.03;5035210;28;20037;-91
2021/01/05 10:59:21;;;;;;;3.97;2.35;;;;;;;12.29;46.02;101124.63;5034993;28;20075;-91
2021/01/05 11:01:46;;;;;;;6.07;2.17;;;;;;;12.72;45.03;101120.16;5034855;28;20485;-91
2021/01/05 11:04:11;;;;;;;5.25;2.70;;;;;;;12.67;43.67;101120.47;5031599;28;20543;-90
2021/01/05 11:06:37;;;;;;;4.85;2.42;;;;;;;12.66;43.28;101116.16;5030962;28;20518;-88
2021/01/05 11:09:03;;;;;;;4.95;2.00;;;;;;;12.96;45.01;101113.28;5033797;28;20533;-88
2021/01/05 11:11:28;;;;;;;6.45;2.83;;;;;;;12.84;45.08;101117.59;5018140;28;20123;-89
2021/01/05 11:13:53;;;;;;;6.15;1.92;;;;;;;13.84;43.74;101118.72;5018572;28;20104;-90
2021/01/05 11:16:19;;;;;;;4.70;2.20;;;;;;;13.47;42.95;101120.44;5023444;28;20036;-88
2021/01/05 11:18:44;;;;;;;4.40;2.10;;;;;;;13.78;43.92;101123.59;5029619;28;20022;-88
2021/01/05 11:21:13;;;;;;;5.10;1.77;;;;;;;13.66;42.19;101127.91;5033537;28;20361;-88
2021/01/05 11:23:39;;;;;;;4.57;1.95;;;;;;;12.79;43.91;101118.81;5034227;28;20025;-90
2021/01/05 11:26:09;;;;;;;2.50;1.70;;;;;;;11.96;45.56;101113.59;5034054;28;20030;-90
2021/01/05 11:28:35;;;;;;;5.65;2.20;;;;;;;12.82;45.20;101119.47;5031038;28;20021;-90
2021/01/05 11:31:00;;;;;;;10.80;2.35;;;;;;;12.49;44.62;101119.88;5033885;28;20665;-90
2021/01/05 11:33:25;;;;;;;8.25;2.53;;;;;;;11.86;45.91;101119.41;5033327;28;20029;-90
2021/01/05 11:35:51;;;;;;;5.55;2.28;;;;;;;11.94;46.53;101103.16;5036084;28;20031;-90
2021/01/05 11:38:16;;;;;;;3.95;2.15;;;;;;;11.67;46.43;101109.19;5043763;28;20021;-90
2021/01/05 11:40:43;;;;;;;6.47;2.95;;;;;;;11.28;47.85;101109.81;5040525;28;20032;-90
2021/01/05 11:43:08;;;;;;;3.85;2.15;;;;;;;10.57;48.45;101113.91;5035066;28;20063;-90